createdAt,value
2018-12-03T00:01:06.996Z,8.67
2018-12-03T00:03:36.056Z,8.00
2018-12-03T00:06:04.377Z,8.23
2018-12-03T00:08:32.628Z,10.10
2018-12-03T00:11:00.857Z,11.43
2018-12-03T00:13:29.082Z,12.80
2018-12-03T00:15:57.285Z,13.50
2018-12-03T00:18:25.533Z,16.47
2018-12-03T00:20:53.780Z,15.37
2018-12-03T00:23:22.005Z,13.57
2018-12-03T00:25:50.257Z,15.40
2018-12-03T00:28:18.467Z,16.23
2018-12-03T00:36:32.155Z,17.80
2018-12-03T00:39:00.388Z,18.10
2018-12-03T00:41:28.632Z,14.67
2018-12-03T00:43:56.867Z,16.90
2018-12-03T00:46:25.095Z,19.40
2018-12-03T00:48:55.345Z,16.40
2018-12-03T00:51:23.609Z,16.00
2018-12-03T00:53:51.839Z,14.20
2018-12-03T00:56:20.093Z,15.00
2018-12-03T00:58:48.312Z,15.57
2018-12-03T01:01:16.567Z,12.50
2018-12-03T01:03:44.807Z,12.90
2018-12-03T01:06:13.062Z,12.73
2018-12-03T01:08:48.681Z,11.50
2018-12-03T01:11:16.933Z,8.10
2018-12-03T01:13:45.144Z,9.90
2018-12-03T01:16:18.113Z,5.50
2018-12-03T01:18:46.354Z,6.70
2018-12-03T01:21:14.571Z,5.77
2018-12-03T01:23:42.795Z,7.23
2018-12-03T01:26:10.999Z,5.43
2018-12-03T01:28:39.221Z,4.03
2018-12-03T01:31:26.196Z,4.53
2018-12-03T01:33:54.407Z,4.80
2018-12-03T01:36:22.660Z,3.73
2018-12-03T01:38:50.890Z,5.03
2018-12-03T01:41:19.117Z,5.00
2018-12-03T01:43:47.335Z,4.23
2018-12-03T01:46:15.540Z,5.60
2018-12-03T01:48:43.873Z,7.10
2018-12-03T01:51:12.037Z,10.07
2018-12-03T01:53:40.255Z,8.30
2018-12-03T01:56:08.475Z,7.67
2018-12-03T01:58:36.675Z,10.53
2018-12-03T02:01:05.011Z,11.93
2018-12-03T02:03:33.265Z,10.33
2018-12-03T02:06:01.555Z,10.47
2018-12-03T02:08:29.797Z,7.57
2018-12-03T02:10:58.094Z,7.20
2018-12-03T02:13:26.308Z,8.30
2018-12-03T02:15:54.513Z,4.90
2018-12-03T02:18:22.838Z,4.40
2018-12-03T02:20:51.065Z,6.87
2018-12-03T02:23:19.314Z,5.83
2018-12-03T02:25:47.537Z,6.67
2018-12-03T02:28:15.737Z,7.13
2018-12-03T02:30:43.986Z,6.13
2018-12-03T02:33:12.183Z,8.73
2018-12-03T02:35:40.402Z,10.40
2018-12-03T02:38:08.625Z,6.43
2018-12-03T02:40:41.521Z,11.77
2018-12-03T02:43:09.725Z,6.43
2018-12-03T02:45:37.965Z,9.77
2018-12-03T02:48:06.444Z,7.33
2018-12-03T02:50:41.391Z,7.37
2018-12-03T02:53:09.608Z,7.43
2018-12-03T02:55:37.836Z,8.50
2018-12-03T02:58:06.064Z,7.00
2018-12-03T03:00:38.721Z,10.00
2018-12-03T03:03:07.264Z,10.20
2018-12-03T03:05:35.749Z,5.10
2018-12-03T03:08:04.033Z,3.60
2018-12-03T03:10:32.267Z,3.13
2018-12-03T03:13:00.527Z,3.23
2018-12-03T03:15:28.757Z,5.80
2018-12-03T03:17:56.960Z,3.97
2018-12-03T03:20:25.168Z,2.83
2018-12-03T03:22:53.388Z,3.93
2018-12-03T03:25:21.636Z,6.10
2018-12-03T03:27:49.935Z,5.80
2018-12-03T03:30:18.170Z,7.13
2018-12-03T03:32:46.413Z,2.93
2018-12-03T03:35:15.011Z,8.37
2018-12-03T03:37:43.279Z,4.67
2018-12-03T03:40:14.075Z,6.07
2018-12-03T03:42:43.419Z,8.73
2018-12-03T03:45:16.945Z,3.47
2018-12-03T03:47:45.199Z,2.77
2018-12-03T03:50:13.408Z,3.33
2018-12-03T03:52:41.629Z,5.43
2018-12-03T03:55:10.528Z,5.30
2018-12-03T03:57:38.778Z,4.43
2018-12-03T04:00:11.163Z,5.87
2018-12-03T04:02:39.589Z,4.50
2018-12-03T04:05:09.274Z,4.47
2018-12-03T04:07:37.490Z,5.00
2018-12-03T04:10:08.980Z,7.20
2018-12-03T04:12:37.231Z,3.77
2018-12-03T04:15:07.740Z,4.17
2018-12-03T04:17:36.037Z,2.80
2018-12-03T04:20:07.513Z,4.70
2018-12-03T04:22:35.731Z,3.43
2018-12-03T04:25:04.100Z,2.67
2018-12-03T04:27:32.313Z,6.00
2018-12-03T04:30:00.546Z,5.07
2018-12-03T04:32:28.756Z,6.13
2018-12-03T04:34:57.005Z,8.30
2018-12-03T04:37:25.235Z,9.50
2018-12-03T04:39:53.445Z,8.03
2018-12-03T04:42:21.663Z,8.00
2018-12-03T04:44:49.902Z,7.47
2018-12-03T04:47:18.101Z,5.20
2018-12-03T04:49:46.337Z,5.20
2018-12-03T04:52:14.543Z,3.20
2018-12-03T04:54:42.794Z,7.47
2018-12-03T04:57:11.004Z,5.70
2018-12-03T04:59:39.253Z,3.13
2018-12-03T05:02:07.463Z,4.67
2018-12-03T05:04:35.653Z,5.07
2018-12-03T05:07:04.063Z,4.33
2018-12-03T05:09:32.294Z,4.57
2018-12-03T05:12:03.840Z,2.77
2018-12-03T05:14:32.052Z,2.23
2018-12-03T05:17:00.234Z,2.43
2018-12-03T05:19:28.436Z,3.20
2018-12-03T05:21:56.662Z,2.47
2018-12-03T05:24:24.884Z,2.17
2018-12-03T05:26:53.092Z,3.73
2018-12-03T05:29:21.304Z,1.90
2018-12-03T05:31:53.297Z,3.13
2018-12-03T05:34:21.497Z,3.37
2018-12-03T05:36:49.716Z,2.10
2018-12-03T05:39:17.921Z,2.53
2018-12-03T05:41:46.148Z,2.50
2018-12-03T05:44:14.352Z,2.97
2018-12-03T05:46:42.563Z,4.37
2018-12-03T05:49:10.783Z,7.30
2018-12-03T05:51:39.026Z,4.97
2018-12-03T05:54:07.223Z,5.33
2018-12-03T05:56:35.477Z,9.50
2018-12-03T05:59:03.739Z,7.40
2018-12-03T06:01:31.956Z,4.93
2018-12-03T06:04:00.192Z,7.20
2018-12-03T06:06:28.409Z,11.80
2018-12-03T06:08:56.653Z,5.77
2018-12-03T06:11:24.895Z,7.77
2018-12-03T06:13:53.104Z,3.60
2018-12-03T06:16:21.312Z,6.93
2018-12-03T06:18:49.560Z,10.90
2018-12-03T06:21:17.819Z,11.43
2018-12-03T06:23:46.047Z,10.27
2018-12-03T06:26:14.267Z,5.20
2018-12-03T06:28:42.491Z,6.30
2018-12-03T06:31:10.711Z,7.17
2018-12-03T06:33:38.925Z,7.93
2018-12-03T06:36:07.146Z,5.93
2018-12-03T06:38:35.351Z,7.77
2018-12-03T06:41:03.822Z,9.67
2018-12-03T06:43:32.032Z,9.13
2018-12-03T06:46:00.264Z,10.30
2018-12-03T06:48:28.492Z,9.97
2018-12-03T06:50:56.688Z,6.63
2018-12-03T06:53:24.884Z,3.77
2018-12-03T06:55:53.132Z,2.57
2018-12-03T06:58:21.353Z,1.87
2018-12-03T07:00:49.607Z,2.90
2018-12-03T07:03:17.860Z,1.03
2018-12-03T07:05:48.747Z,7.00
2018-12-03T07:08:17.272Z,1.40
2018-12-03T07:10:45.511Z,1.93
2018-12-03T07:13:16.621Z,3.63
2018-12-03T07:15:45.567Z,3.43
2018-12-03T07:18:14.081Z,3.53
2018-12-03T07:20:42.328Z,3.90
2018-12-03T07:23:10.523Z,3.07
2018-12-03T07:25:38.737Z,3.73
2018-12-03T07:28:07.054Z,5.37
2018-12-03T07:30:35.306Z,5.70
2018-12-03T07:33:03.637Z,8.57
2018-12-03T07:35:31.874Z,6.10
2018-12-03T07:38:00.084Z,7.13
2018-12-03T07:40:34.853Z,8.53
2018-12-03T07:43:03.113Z,5.53
2018-12-03T07:45:31.323Z,7.53
2018-12-03T07:47:59.536Z,4.43
2018-12-03T07:50:27.766Z,6.97
2018-12-03T07:52:56.002Z,8.60
2018-12-03T07:55:25.213Z,6.30
2018-12-03T07:58:01.132Z,7.03
2018-12-03T08:00:36.424Z,11.23
2018-12-03T08:03:05.237Z,8.27
2018-12-03T08:05:33.625Z,7.77
2018-12-03T08:08:01.947Z,8.53
2018-12-03T08:10:32.572Z,5.80
2018-12-03T08:13:08.856Z,8.53
2018-12-03T08:15:37.077Z,5.57
2018-12-03T08:18:08.301Z,12.30
2018-12-03T08:20:43.469Z,10.10
2018-12-03T08:23:18.021Z,10.20
2018-12-03T08:25:46.289Z,13.90
2018-12-03T08:28:14.604Z,15.97
2018-12-03T08:30:42.805Z,7.10
2018-12-03T08:33:15.421Z,8.40
2018-12-03T08:35:43.851Z,6.10
2018-12-03T08:38:15.865Z,6.00
2018-12-03T08:40:44.192Z,6.57
2018-12-03T08:43:17.952Z,7.87
2018-12-03T08:45:48.294Z,9.40
2018-12-03T08:48:18.567Z,6.13
2018-12-03T08:50:47.720Z,8.10
2018-12-03T08:53:15.980Z,7.70
2018-12-03T08:55:44.278Z,9.43
2018-12-03T08:58:15.592Z,9.07
2018-12-03T09:00:45.281Z,5.87
2018-12-03T09:03:23.653Z,8.20
2018-12-03T09:05:51.971Z,9.67
2018-12-03T09:08:20.359Z,9.20
2018-12-03T09:10:48.636Z,9.53
2018-12-03T09:13:20.545Z,12.90
2018-12-03T09:15:57.623Z,11.80
2018-12-03T09:18:31.344Z,10.27
2018-12-03T09:21:00.238Z,9.43
2018-12-03T09:23:29.453Z,5.33
2018-12-03T09:25:57.776Z,7.77
2018-12-03T09:28:26.080Z,15.40
2018-12-03T09:30:54.351Z,11.43
2018-12-03T09:33:22.624Z,11.47
2018-12-03T09:35:50.881Z,9.30
2018-12-03T09:38:19.122Z,11.83
2018-12-03T09:40:47.335Z,9.93
2018-12-03T09:43:15.632Z,6.93
2018-12-03T09:45:43.844Z,12.57
2018-12-03T09:48:12.089Z,12.73
2018-12-03T09:50:41.331Z,13.63
2018-12-03T09:53:09.577Z,11.97
2018-12-03T09:55:37.804Z,4.73
2018-12-03T09:58:08.637Z,9.37
2018-12-03T10:00:36.868Z,12.97
2018-12-03T10:03:09.634Z,10.93
2018-12-03T10:05:40.313Z,6.07
2018-12-03T10:08:08.539Z,9.43
2018-12-03T10:10:36.734Z,5.83
2018-12-03T10:13:07.646Z,9.17
2018-12-03T10:15:36.908Z,5.80
2018-12-03T10:18:06.489Z,7.83
2018-12-03T10:20:34.697Z,9.50
2018-12-03T10:23:05.163Z,8.13
2018-12-03T10:25:33.362Z,6.93
2018-12-03T10:28:04.260Z,9.33
2018-12-03T10:30:32.461Z,10.43
2018-12-03T10:33:01.755Z,12.03
2018-12-03T10:35:36.565Z,13.43
2018-12-03T10:38:12.414Z,12.37
2018-12-03T10:40:44.308Z,8.33
2018-12-03T10:43:12.708Z,12.17
2018-12-03T10:45:41.104Z,11.47
2018-12-03T10:48:09.325Z,15.33
2018-12-03T10:50:37.575Z,13.30
2018-12-03T10:53:06.091Z,10.53
2018-12-03T10:55:37.307Z,7.57
2018-12-03T10:58:08.685Z,10.33
2018-12-03T11:02:52.280Z,8.27
2018-12-03T11:05:34.745Z,6.83
2018-12-03T11:08:03.117Z,8.87
2018-12-03T11:10:39.681Z,6.17
2018-12-03T11:13:07.944Z,7.50
2018-12-03T11:15:36.141Z,8.30
2018-12-03T11:18:10.126Z,7.83
2018-12-03T11:20:38.382Z,7.87
2018-12-03T11:23:09.234Z,7.07
2018-12-03T11:25:42.430Z,8.73
2018-12-03T11:28:13.739Z,8.07
2018-12-03T11:30:49.815Z,9.53
2018-12-03T11:33:22.145Z,8.13
2018-12-03T11:35:50.709Z,9.73
2018-12-03T11:38:28.690Z,8.80
2018-12-03T11:40:57.312Z,10.17
2018-12-03T11:43:27.513Z,12.23
2018-12-03T11:45:55.861Z,7.63
2018-12-03T11:48:29.368Z,13.87
2018-12-03T11:50:58.680Z,8.10
2018-12-03T11:53:27.989Z,6.97
2018-12-03T11:55:56.244Z,9.30
2018-12-03T11:58:28.523Z,6.93
2018-12-03T12:01:07.675Z,5.83
2018-12-03T12:03:42.749Z,9.47
2018-12-03T12:06:11.912Z,9.77
2018-12-03T12:08:43.449Z,8.10
2018-12-03T12:14:26.201Z,12.37
2018-12-03T12:16:54.427Z,9.40
2018-12-03T12:19:22.645Z,8.50
2018-12-03T12:21:50.872Z,7.73
2018-12-03T12:24:19.125Z,9.00
2018-12-03T12:26:47.396Z,10.57
2018-12-03T12:29:16.653Z,8.90
2018-12-03T12:31:44.938Z,8.93
2018-12-03T12:34:23.116Z,8.87
2018-12-03T12:36:51.467Z,8.63
2018-12-03T12:39:19.845Z,9.80
2018-12-03T12:41:48.066Z,6.97
2018-12-03T12:44:24.101Z,6.73
2018-12-03T12:46:53.467Z,8.00
2018-12-03T12:49:23.516Z,5.63
2018-12-03T12:51:51.858Z,5.67
2018-12-03T12:54:19.979Z,5.00
2018-12-03T12:56:48.980Z,5.03
2018-12-03T12:59:17.704Z,8.33
2018-12-03T13:01:47.032Z,6.57
2018-12-03T13:04:15.275Z,11.37
2018-12-03T13:06:43.512Z,8.20
2018-12-03T13:09:11.787Z,10.17
2018-12-03T13:11:40.813Z,10.77
2018-12-03T13:14:10.923Z,11.10
2018-12-03T13:16:39.344Z,7.73
2018-12-03T13:19:08.691Z,7.23
2018-12-03T13:21:36.907Z,5.60
2018-12-03T13:24:05.566Z,7.67
2018-12-03T13:26:35.678Z,7.93
2018-12-03T13:29:03.934Z,8.20
2018-12-03T13:31:32.229Z,5.33
2018-12-03T13:34:00.487Z,5.10
2018-12-03T13:36:29.828Z,7.23
2018-12-03T13:38:58.204Z,6.63
2018-12-03T13:41:26.704Z,8.53
2018-12-03T13:43:55.037Z,8.53
2018-12-03T13:46:23.337Z,8.20
2018-12-03T13:48:51.564Z,7.87
2018-12-03T13:51:19.775Z,7.63
2018-12-03T13:53:48.005Z,7.07
2018-12-03T13:56:16.234Z,4.77
2018-12-03T13:58:44.471Z,7.57
2018-12-03T14:01:12.692Z,6.20
2018-12-03T14:03:41.424Z,5.73
2018-12-03T14:06:17.944Z,6.60
2018-12-03T14:09:27.102Z,4.70
2018-12-03T14:12:15.144Z,7.33
2018-12-03T14:15:12.600Z,6.57
2018-12-03T14:17:47.347Z,7.50
2018-12-03T14:20:15.770Z,5.83
2018-12-03T14:22:57.480Z,7.07
2018-12-03T14:25:25.731Z,10.03
2018-12-03T14:27:53.985Z,5.90
2018-12-03T14:30:22.307Z,5.13
2018-12-03T14:32:50.529Z,5.60
2018-12-03T14:35:18.737Z,3.83
2018-12-03T14:37:46.976Z,4.87
2018-12-03T14:40:15.240Z,7.83
2018-12-03T14:46:21.385Z,6.63
2018-12-03T14:48:48.781Z,5.47
2018-12-03T14:51:22.271Z,4.77
2018-12-03T14:53:49.708Z,6.97
2018-12-03T14:56:25.084Z,6.33
2018-12-03T14:58:52.460Z,6.77
2018-12-03T15:01:19.844Z,8.03
2018-12-03T15:03:47.231Z,9.40
2018-12-03T15:06:14.611Z,9.93
2018-12-03T15:08:42.029Z,13.47
2018-12-03T15:11:09.415Z,12.63
2018-12-03T15:13:36.816Z,11.13
2018-12-03T15:16:04.283Z,11.93
2018-12-03T15:18:31.742Z,11.97
2018-12-03T15:20:59.186Z,10.73
2018-12-03T15:23:29.872Z,10.23
2018-12-03T15:26:06.857Z,10.57
2018-12-03T15:28:40.239Z,7.27
2018-12-03T15:31:13.983Z,8.20
2018-12-03T15:33:51.207Z,7.43
2018-12-03T15:36:29.240Z,8.73
2018-12-03T15:39:02.275Z,8.83
2018-12-03T15:41:37.081Z,7.83
2018-12-03T15:44:08.286Z,10.50
2018-12-03T15:46:42.246Z,8.90
2018-12-03T15:54:56.832Z,9.57
2018-12-03T15:57:29.003Z,7.97
2018-12-03T15:59:58.218Z,6.87
2018-12-03T16:02:27.041Z,10.23
2018-12-03T16:04:57.908Z,8.97
2018-12-03T16:07:27.108Z,8.50
2018-12-03T16:09:57.269Z,8.67
2018-12-03T16:12:30.967Z,9.93
2018-12-03T16:15:05.697Z,5.67
2018-12-03T16:17:39.309Z,7.13
2018-12-03T16:20:16.387Z,9.47
2018-12-03T16:22:56.909Z,7.53
2018-12-03T16:25:26.544Z,7.50
2018-12-03T16:27:56.959Z,8.27
2018-12-03T16:30:30.729Z,8.07
2018-12-03T16:33:09.368Z,6.00
2018-12-03T16:35:38.577Z,8.33
2018-12-03T16:38:09.399Z,4.60
2018-12-03T16:40:39.914Z,7.70
2018-12-03T16:43:13.800Z,6.67
2018-12-03T16:45:47.490Z,5.33
2018-12-03T16:48:20.744Z,2.83
2018-12-03T16:50:54.076Z,6.93
2018-12-03T16:53:27.998Z,3.53
2018-12-03T16:56:01.960Z,3.77
2018-12-03T16:58:37.047Z,4.43
2018-12-03T17:01:11.030Z,5.03
2018-12-03T17:03:44.935Z,10.10
2018-12-03T17:06:18.705Z,6.50
2018-12-03T17:08:52.060Z,5.00
2018-12-03T17:11:25.978Z,3.23
2018-12-03T17:13:59.077Z,5.30
2018-12-03T17:16:30.258Z,2.87
2018-12-03T17:19:04.309Z,3.60
2018-12-03T17:21:38.533Z,4.83
2018-12-03T17:24:12.305Z,4.93
2018-12-03T17:26:47.510Z,4.63
2018-12-03T17:29:21.560Z,5.80
2018-12-03T17:31:59.821Z,6.63
2018-12-03T17:34:35.902Z,5.77
2018-12-03T17:40:17.915Z,5.17
2018-12-03T17:42:47.105Z,4.37
2018-12-03T17:45:18.561Z,6.13
2018-12-03T17:47:47.301Z,5.13
2018-12-03T17:50:21.324Z,5.97
2018-12-03T17:52:50.325Z,5.73
2018-12-03T17:55:24.222Z,5.20
2018-12-03T17:57:59.006Z,8.53
2018-12-03T18:00:32.162Z,6.43
2018-12-03T18:03:06.336Z,5.37
2018-12-03T18:05:58.519Z,8.67
2018-12-03T18:08:32.443Z,6.57
2018-12-03T18:11:05.742Z,8.40
2018-12-03T18:13:38.809Z,6.17
2018-12-03T18:16:24.341Z,6.57
2018-12-03T18:18:57.710Z,8.27
2018-12-03T18:21:34.081Z,6.33
2018-12-03T18:24:05.107Z,8.90
2018-12-03T18:26:34.232Z,6.20
2018-12-03T18:29:08.260Z,6.27
2018-12-03T18:31:42.216Z,6.23
2018-12-03T18:34:13.313Z,8.27
2018-12-03T18:36:42.297Z,7.00
2018-12-03T18:39:16.199Z,8.17
2018-12-03T18:41:50.233Z,6.87
2018-12-03T18:44:23.887Z,10.43
2018-12-03T18:46:58.839Z,7.70
2018-12-03T18:49:32.762Z,6.63
2018-12-03T18:52:06.827Z,8.43
2018-12-03T18:54:38.022Z,10.90
2018-12-03T18:57:12.088Z,6.97
2018-12-03T18:59:46.053Z,7.17
2018-12-03T19:02:20.036Z,8.97
2018-12-03T19:04:51.275Z,7.83
2018-12-03T19:07:20.191Z,7.57
2018-12-03T19:09:54.045Z,6.57
2018-12-03T19:12:28.099Z,6.43
2018-12-03T19:15:02.037Z,7.57
2018-12-03T19:17:32.978Z,8.87
2018-12-03T19:20:07.254Z,6.60
2018-12-03T19:22:41.135Z,6.93
2018-12-03T19:25:14.905Z,8.73
2018-12-03T19:27:57.484Z,4.60
2018-12-03T19:30:31.087Z,6.20
2018-12-03T19:33:01.445Z,6.73
2018-12-03T19:35:35.323Z,8.37
2018-12-03T19:38:16.202Z,9.30
2018-12-03T19:40:45.192Z,7.23
2018-12-03T19:43:18.965Z,9.17
2018-12-03T19:46:00.269Z,5.70
2018-12-03T19:48:33.977Z,10.03
2018-12-03T19:51:13.751Z,9.97
2018-12-03T19:53:44.412Z,9.37
2018-12-03T19:56:13.508Z,9.83
2018-12-03T19:58:55.224Z,10.47
2018-12-03T20:01:35.187Z,13.03
2018-12-03T20:04:17.473Z,7.53
2018-12-03T20:06:51.424Z,8.00
2018-12-03T20:09:30.399Z,10.87
2018-12-03T20:12:04.009Z,10.07
2018-12-03T20:14:37.812Z,11.37
2018-12-03T20:17:08.256Z,10.20
2018-12-03T20:19:41.746Z,7.27
2018-12-03T20:22:10.341Z,13.43
2018-12-03T20:24:43.439Z,18.17
2018-12-03T20:27:17.308Z,11.83
2018-12-03T20:29:52.343Z,16.67
2018-12-03T20:32:25.442Z,13.53
2018-12-03T20:34:57.709Z,12.87
2018-12-03T20:37:31.568Z,12.60
2018-12-03T20:40:09.683Z,12.13
2018-12-03T20:42:40.438Z,9.93
2018-12-03T20:45:13.377Z,16.07
2018-12-03T20:47:44.992Z,12.70
2018-12-03T20:50:19.036Z,10.97
2018-12-03T20:52:49.455Z,19.33
2018-12-03T20:55:20.618Z,10.73
2018-12-03T20:57:50.636Z,12.27
2018-12-03T21:00:24.537Z,14.43
2018-12-03T21:02:54.929Z,19.30
2018-12-03T21:05:32.535Z,14.17
2018-12-03T21:08:01.961Z,13.27
2018-12-03T21:10:34.852Z,15.57
2018-12-03T21:13:08.824Z,14.20
2018-12-03T21:15:41.035Z,12.67
2018-12-03T21:18:18.993Z,11.63
2018-12-03T21:20:52.250Z,14.23
2018-12-03T21:23:26.141Z,13.20
2018-12-03T21:25:59.245Z,13.20
2018-12-03T21:28:33.128Z,13.93
2018-12-03T21:31:07.532Z,11.63
2018-12-03T21:33:41.020Z,13.47
2018-12-03T21:36:14.411Z,12.60
2018-12-03T21:38:44.764Z,8.30
2018-12-03T21:41:18.429Z,16.07
2018-12-03T21:43:53.383Z,16.60
2018-12-03T21:46:27.365Z,9.97
2018-12-03T21:49:01.342Z,18.03
2018-12-03T21:51:31.813Z,12.57
2018-12-03T21:54:05.385Z,12.13
2018-12-03T21:56:38.570Z,13.70
2018-12-03T21:59:08.985Z,17.97
2018-12-03T22:01:40.016Z,8.80
2018-12-03T22:04:10.505Z,12.20
2018-12-03T22:06:41.730Z,12.47
2018-12-03T22:09:12.055Z,15.27
2018-12-03T22:11:46.927Z,12.20
2018-12-03T22:14:17.540Z,11.23
2018-12-03T22:16:48.757Z,10.97
2018-12-03T22:19:20.012Z,10.10
2018-12-03T22:21:54.768Z,11.80
2018-12-03T22:24:26.080Z,13.47
2018-12-03T22:26:59.153Z,15.80
2018-12-03T22:29:33.179Z,12.83
2018-12-03T22:32:07.280Z,13.43
2018-12-03T22:34:37.595Z,15.87
2018-12-03T22:37:10.888Z,10.70
2018-12-03T22:39:46.331Z,11.27
2018-12-03T22:42:17.381Z,10.83
2018-12-03T22:44:48.248Z,10.47
2018-12-03T22:47:17.877Z,10.37
2018-12-03T22:49:51.882Z,9.33
2018-12-03T22:54:52.122Z,9.70
2018-12-03T22:57:25.418Z,10.23
2018-12-03T22:59:59.292Z,10.27
2018-12-03T23:02:39.602Z,11.13
2018-12-03T23:05:10.115Z,11.17
2018-12-03T23:07:43.364Z,9.97
2018-12-03T23:10:12.604Z,8.63
2018-12-03T23:12:50.033Z,7.20
2018-12-03T23:15:36.293Z,6.93
2018-12-03T23:18:05.529Z,8.73
2018-12-03T23:20:38.901Z,9.17
2018-12-03T23:23:10.482Z,9.83
2018-12-03T23:28:44.382Z,5.80
2018-12-03T23:31:15.436Z,8.90
2018-12-03T23:33:49.226Z,9.73
2018-12-03T23:36:20.380Z,9.07
2018-12-03T23:38:54.069Z,12.67
2018-12-03T23:41:25.283Z,10.80
2018-12-03T23:44:06.935Z,9.40
2018-12-03T23:46:42.859Z,8.47
2018-12-03T23:49:14.093Z,10.03
2018-12-03T23:51:47.269Z,12.00
2018-12-03T23:56:52.843Z,8.83
2018-12-03T23:59:27.897Z,7.67
